Terminal Aerodrome Forecast
Issued by NWS

Home | Current Version | Previous Version | Text Only | Print | Product List | Glossary Off
Versions: 1 2 3 4 5 6 7 8 9 10 11 12 13 14 15 16 17 18 19 20 21 22 23 24 25 26 27 28 29 30 31 32 33 34 35 36 37 38 39 40 41 42 43 44 45 46 47 48 49 50

873
FTUS43 KLOT 162332
TAFGYY
TAF
KGYY 162332Z 1700/1724 12006KT 3/4SM -SHRA BR OVC002
     FM170100 10012KT 3/4SM SHRA BR OVC002
      TEMPO 1703/1705 1/2SM TSRA FG OVC003CB
     FM170600 VRB03KT 1/2SM -RADZ FG OVC002
     FM171300 24010KT 2SM -DZ BR OVC003
     FM172000 27011KT 4SM BR VCSH OVC007=

USA.gov is the U.S. government's official web portal to all federal, state and local government web resources and services.